createdAt,value
2022-11-05T00:00:31.060Z,4.95
2022-11-05T00:03:18.139Z,5.97
2022-11-05T00:06:05.948Z,5.07
2022-11-05T00:08:51.555Z,5.65
2022-11-05T00:11:39.854Z,5.63
2022-11-05T00:14:25.648Z,5.07
2022-11-05T00:16:53.905Z,5.07
2022-11-05T00:19:23.442Z,4.70
2022-11-05T00:22:09.024Z,5.32
2022-11-05T00:24:54.896Z,5.30
2022-11-05T00:27:23.157Z,4.75
2022-11-05T00:29:51.363Z,5.43
2022-11-05T00:32:19.672Z,5.00
2022-11-05T00:34:49.269Z,4.70
2022-11-05T00:37:17.501Z,4.95
2022-11-05T00:39:45.716Z,5.10
2022-11-05T00:42:39.860Z,5.32
2022-11-05T00:45:09.476Z,4.72
2022-11-05T00:47:55.353Z,5.38
2022-11-05T00:50:25.823Z,4.93
2022-11-05T00:52:59.665Z,4.95
2022-11-05T00:55:34.569Z,5.07
2022-11-05T00:58:05.418Z,5.40
2022-11-05T01:00:36.260Z,5.20
2022-11-05T01:03:07.176Z,5.25
2022-11-05T01:05:41.002Z,5.70
2022-11-05T01:08:09.976Z,5.40
2022-11-05T01:10:42.375Z,6.05
2022-11-05T01:13:13.220Z,4.75
2022-11-05T01:15:41.964Z,4.97
2022-11-05T01:18:10.377Z,4.57
2022-11-05T01:20:40.100Z,5.20
2022-11-05T01:23:13.162Z,4.37
2022-11-05T01:25:42.048Z,5.00
2022-11-05T01:28:11.022Z,5.05
2022-11-05T01:30:39.795Z,5.03
2022-11-05T01:33:08.869Z,5.32
2022-11-05T01:35:37.249Z,5.50
2022-11-05T01:38:06.882Z,5.05
2022-11-05T01:40:35.103Z,4.50
2022-11-05T01:43:03.337Z,5.25
2022-11-05T01:45:31.609Z,4.90
2022-11-05T01:48:06.904Z,4.82
2022-11-05T01:50:41.678Z,5.00
2022-11-05T01:53:19.888Z,4.70
2022-11-05T01:55:56.053Z,4.80
2022-11-05T01:58:30.317Z,4.40
2022-11-05T02:00:58.573Z,4.97
2022-11-05T02:03:27.590Z,4.65
2022-11-05T02:05:58.600Z,4.32
2022-11-05T02:08:46.483Z,5.53
2022-11-05T02:11:18.378Z,4.45
2022-11-05T02:13:47.621Z,4.22
2022-11-05T02:16:23.821Z,4.55
2022-11-05T02:19:00.992Z,4.20
2022-11-05T02:21:54.385Z,4.38
2022-11-05T02:25:07.361Z,4.40
2022-11-05T02:28:06.333Z,4.65
2022-11-05T02:30:46.877Z,4.95
2022-11-05T02:33:42.984Z,4.65
2022-11-05T02:36:29.810Z,5.45
2022-11-05T02:39:11.649Z,4.65
2022-11-05T02:41:49.867Z,4.75
2022-11-05T02:44:27.940Z,4.25
2022-11-05T02:47:04.479Z,4.45
2022-11-05T02:49:43.090Z,4.90
2022-11-05T02:52:17.925Z,4.80
2022-11-05T02:54:55.350Z,4.93
2022-11-05T02:57:24.406Z,4.53
2022-11-05T03:00:02.352Z,5.28
2022-11-05T03:02:32.358Z,4.50
2022-11-05T03:05:01.425Z,4.93
2022-11-05T03:07:44.973Z,5.43
2022-11-05T03:10:42.200Z,4.57
2022-11-05T03:13:18.552Z,4.93
2022-11-05T03:15:58.130Z,4.55
2022-11-05T03:18:35.379Z,5.00
2022-11-05T03:21:10.176Z,4.60
2022-11-05T03:23:45.851Z,4.50
2022-11-05T03:26:19.787Z,4.30
2022-11-05T03:28:53.264Z,4.57
2022-11-05T03:31:23.856Z,4.35
2022-11-05T03:33:56.192Z,4.22
2022-11-05T03:36:29.787Z,4.22
2022-11-05T03:39:01.073Z,4.03
2022-11-05T03:41:30.734Z,3.85
2022-11-05T03:44:02.950Z,4.22
2022-11-05T03:46:36.470Z,4.05
2022-11-05T03:49:09.541Z,3.60
2022-11-05T03:51:43.841Z,4.00
2022-11-05T03:54:12.369Z,3.70
2022-11-05T03:56:47.404Z,3.50
2022-11-05T03:59:16.228Z,4.13
2022-11-05T04:01:45.398Z,3.85
2022-11-05T04:04:15.083Z,4.13
2022-11-05T04:07:00.711Z,3.92
2022-11-05T04:09:46.298Z,4.53
2022-11-05T04:12:31.978Z,4.55
2022-11-05T04:15:00.272Z,4.68
2022-11-05T04:17:27.487Z,4.88
2022-11-05T04:20:14.591Z,5.15
2022-11-05T04:23:00.375Z,4.93
2022-11-05T04:25:28.641Z,4.78
2022-11-05T04:28:01.214Z,5.07
2022-11-05T04:30:28.456Z,5.43
2022-11-05T04:33:03.753Z,5.10
2022-11-05T04:35:36.131Z,5.13
2022-11-05T04:38:05.044Z,5.30
2022-11-05T04:40:33.546Z,5.20
2022-11-05T04:43:02.383Z,5.40
2022-11-05T04:45:34.290Z,4.93
2022-11-05T04:48:02.999Z,4.82
2022-11-05T04:50:33.459Z,4.78
2022-11-05T04:53:02.172Z,5.63
2022-11-05T04:55:30.514Z,5.57
2022-11-05T04:57:58.801Z,5.28
2022-11-05T05:00:27.291Z,4.82
2022-11-05T05:02:55.676Z,5.38
2022-11-05T05:05:24.092Z,5.28
2022-11-05T05:07:53.668Z,5.85
2022-11-05T05:10:21.881Z,5.20
2022-11-05T05:12:50.166Z,5.65
2022-11-05T05:15:18.853Z,5.25
2022-11-05T05:17:51.675Z,5.30
2022-11-05T05:20:36.865Z,6.20
2022-11-05T05:23:06.487Z,6.03
2022-11-05T05:25:34.754Z,6.45
2022-11-05T05:28:02.992Z,7.13
2022-11-05T05:30:31.282Z,7.22
2022-11-05T05:33:04.001Z,6.45
2022-11-05T05:35:32.550Z,6.63
2022-11-05T05:38:00.943Z,7.32
2022-11-05T05:40:30.496Z,6.97
2022-11-05T05:42:58.732Z,7.88
2022-11-05T05:45:26.923Z,7.38
2022-11-05T05:47:56.788Z,7.10
2022-11-05T05:50:25.054Z,7.43
2022-11-05T05:52:53.542Z,7.75
2022-11-05T05:55:21.843Z,7.53
2022-11-05T05:57:51.493Z,7.18
2022-11-05T06:00:19.862Z,7.80
2022-11-05T06:02:48.192Z,7.85
2022-11-05T06:05:16.747Z,7.60
2022-11-05T06:07:45.024Z,8.50
2022-11-05T06:10:13.267Z,8.55
2022-11-05T06:12:41.584Z,8.80
2022-11-05T06:15:11.946Z,8.13
2022-11-05T06:17:40.169Z,8.10
2022-11-05T06:20:09.928Z,8.50
2022-11-05T06:22:38.127Z,8.23
2022-11-05T06:25:08.209Z,8.85
2022-11-05T06:27:37.227Z,8.60
2022-11-05T06:30:06.674Z,8.98
2022-11-05T06:32:36.523Z,9.07
2022-11-05T06:35:05.037Z,9.38
2022-11-05T06:37:34.191Z,8.82
2022-11-05T06:40:02.473Z,9.82
2022-11-05T06:42:30.689Z,9.18
2022-11-05T06:44:58.932Z,9.48
2022-11-05T06:47:27.159Z,9.57
2022-11-05T06:49:57.341Z,9.95
2022-11-05T06:52:27.158Z,9.77
2022-11-05T06:54:55.426Z,9.30
2022-11-05T06:57:23.666Z,9.32
2022-11-05T06:59:55.751Z,9.45
2022-11-05T07:02:27.164Z,9.30
2022-11-05T07:04:56.809Z,9.50
2022-11-05T07:07:25.029Z,9.48
2022-11-05T07:09:53.700Z,9.43
2022-11-05T07:12:21.957Z,9.38
2022-11-05T07:14:50.144Z,9.25
2022-11-05T07:17:19.403Z,9.57
2022-11-05T07:19:47.817Z,9.15
2022-11-05T07:22:17.516Z,9.20
2022-11-05T07:24:47.339Z,8.90
2022-11-05T07:27:15.675Z,8.37
2022-11-05T07:29:44.027Z,8.07
2022-11-05T07:32:12.283Z,8.60
2022-11-05T07:34:40.475Z,8.07
2022-11-05T07:37:08.785Z,7.53
2022-11-05T07:39:38.348Z,7.47
2022-11-05T07:42:06.829Z,8.00
2022-11-05T07:44:35.570Z,8.25
2022-11-05T07:47:03.847Z,7.80
2022-11-05T07:49:32.152Z,7.85
2022-11-05T07:52:00.341Z,7.25
2022-11-05T07:54:28.581Z,7.22
2022-11-05T07:56:58.213Z,7.05
2022-11-05T07:59:26.908Z,7.07
2022-11-05T08:01:55.283Z,6.53
2022-11-05T08:04:23.770Z,6.43
2022-11-05T08:06:52.019Z,6.47
2022-11-05T08:09:20.290Z,6.72
2022-11-05T08:11:50.337Z,6.40
2022-11-05T08:14:22.558Z,6.68
2022-11-05T08:16:50.829Z,6.18
2022-11-05T08:19:19.099Z,6.45
2022-11-05T08:21:47.511Z,6.68
2022-11-05T08:24:15.716Z,7.15
2022-11-05T08:26:43.952Z,6.25
2022-11-05T08:29:12.161Z,6.68
2022-11-05T08:31:41.752Z,7.20
2022-11-05T08:34:10.045Z,6.45
2022-11-05T08:36:40.488Z,6.03
2022-11-05T08:39:14.285Z,6.10
2022-11-05T08:41:45.600Z,6.75
2022-11-05T08:44:13.871Z,5.82
2022-11-05T08:46:43.439Z,6.03
2022-11-05T08:49:11.905Z,6.15
2022-11-05T08:51:40.104Z,5.53
2022-11-05T08:54:08.744Z,6.30
2022-11-05T08:56:36.968Z,6.30
2022-11-05T08:59:05.269Z,5.97
2022-11-05T09:01:34.749Z,6.53
2022-11-05T09:04:04.953Z,6.53
2022-11-05T09:06:33.253Z,6.47
2022-11-05T09:09:01.752Z,6.32
2022-11-05T09:11:56.909Z,6.32
2022-11-05T09:14:18.315Z,6.25
2022-11-05T09:16:46.551Z,6.22
2022-11-05T09:19:16.197Z,6.05
2022-11-05T09:21:44.532Z,6.13
2022-11-05T09:24:12.813Z,5.95
2022-11-05T09:26:41.086Z,5.70
2022-11-05T09:29:14.237Z,5.85
2022-11-05T09:31:43.397Z,6.28
2022-11-05T09:34:11.633Z,5.60
2022-11-05T09:36:41.276Z,6.00
2022-11-05T09:39:12.686Z,5.22
2022-11-05T09:41:43.489Z,5.80
2022-11-05T09:44:16.135Z,5.85
2022-11-05T09:46:50.665Z,6.25
2022-11-05T09:49:27.504Z,5.95
2022-11-05T09:51:59.299Z,6.35
2022-11-05T09:54:33.288Z,6.43
2022-11-05T09:57:03.651Z,6.97
2022-11-05T09:59:37.693Z,6.25
2022-11-05T10:02:16.843Z,6.95
2022-11-05T10:04:48.679Z,6.82
2022-11-05T10:07:23.229Z,7.25
2022-11-05T10:09:56.665Z,6.72
2022-11-05T10:12:33.184Z,6.35
2022-11-05T10:15:13.076Z,7.05
2022-11-05T10:17:47.536Z,6.87
2022-11-05T10:20:23.430Z,6.32
2022-11-05T10:22:58.034Z,6.13
2022-11-05T10:25:33.124Z,7.15
2022-11-05T10:28:01.958Z,6.38
2022-11-05T10:30:30.192Z,6.00
2022-11-05T10:33:02.250Z,6.13
2022-11-05T10:35:34.399Z,5.60
2022-11-05T10:38:04.565Z,6.13
2022-11-05T10:40:50.281Z,5.63
2022-11-05T10:43:25.393Z,5.55
2022-11-05T10:46:00.715Z,5.20
2022-11-05T10:48:50.764Z,5.00
2022-11-05T10:51:19.432Z,5.10
2022-11-05T10:54:01.389Z,4.95
2022-11-05T10:56:34.563Z,5.03
2022-11-05T10:59:07.923Z,5.65
2022-11-05T11:01:39.416Z,5.15
2022-11-05T11:04:17.756Z,5.28
2022-11-05T11:06:51.182Z,5.30
2022-11-05T11:09:25.277Z,5.38
2022-11-05T11:12:08.741Z,5.20
2022-11-05T11:14:37.136Z,5.07
2022-11-05T11:17:26.958Z,5.55
2022-11-05T11:20:22.285Z,4.70
2022-11-05T11:23:06.934Z,5.13
2022-11-05T11:25:47.075Z,5.03
2022-11-05T11:28:23.817Z,5.30
2022-11-05T11:30:58.402Z,5.30
2022-11-05T11:33:29.277Z,5.60
2022-11-05T11:35:57.875Z,5.75
2022-11-05T11:38:26.790Z,6.07
2022-11-05T11:41:09.789Z,5.63
2022-11-05T11:43:42.226Z,5.63
2022-11-05T11:46:16.930Z,5.90
2022-11-05T11:48:48.465Z,5.70
2022-11-05T11:51:21.213Z,5.95
2022-11-05T11:53:50.523Z,5.85
2022-11-05T11:56:22.486Z,7.10
2022-11-05T11:58:53.637Z,5.90
2022-11-05T12:01:53.746Z,6.43
2022-11-05T12:04:51.097Z,6.40
2022-11-05T12:07:41.517Z,5.88
2022-11-05T12:10:28.023Z,6.45
2022-11-05T12:13:48.485Z,6.40
2022-11-05T12:16:32.530Z,6.20
2022-11-05T12:19:14.772Z,6.82
2022-11-05T12:21:53.720Z,6.60
2022-11-05T12:24:40.596Z,6.43
2022-11-05T12:27:27.692Z,6.90
2022-11-05T12:30:06.513Z,6.60
2022-11-05T12:33:07.074Z,6.05
2022-11-05T12:36:05.090Z,6.13
2022-11-05T12:39:04.310Z,6.47
2022-11-05T12:41:41.271Z,6.45
2022-11-05T12:44:38.913Z,6.93
2022-11-05T12:47:27.940Z,6.82
2022-11-05T12:50:16.231Z,6.75
2022-11-05T12:53:34.376Z,6.43
2022-11-05T12:56:10.169Z,6.65
2022-11-05T12:58:43.308Z,6.10
2022-11-05T13:01:22.245Z,5.80
2022-11-05T13:03:56.550Z,6.72
2022-11-05T13:06:31.838Z,6.70
2022-11-05T13:09:05.391Z,6.72
2022-11-05T13:11:40.027Z,6.90
2022-11-05T13:14:14.742Z,7.20
2022-11-05T13:16:48.484Z,6.63
2022-11-05T13:19:25.087Z,6.53
2022-11-05T13:21:58.593Z,6.00
2022-11-05T13:24:33.199Z,5.78
2022-11-05T13:27:13.191Z,5.97
2022-11-05T13:29:49.876Z,5.85
2022-11-05T13:32:29.323Z,6.20
2022-11-05T13:34:59.877Z,6.28
2022-11-05T13:37:48.761Z,6.30
2022-11-05T13:40:22.675Z,6.43
2022-11-05T13:43:43.620Z,6.70
2022-11-05T13:46:39.619Z,6.30
2022-11-05T13:49:46.331Z,7.35
2022-11-05T13:52:38.846Z,6.75
2022-11-05T13:55:47.541Z,7.00
2022-11-05T13:58:53.864Z,7.05
2022-11-05T14:01:44.491Z,7.30
2022-11-05T14:04:27.081Z,7.25
2022-11-05T14:07:06.948Z,6.57
2022-11-05T14:09:38.790Z,7.07
2022-11-05T14:12:20.343Z,7.22
2022-11-05T14:14:59.041Z,6.25
2022-11-05T14:17:36.497Z,6.70
2022-11-05T14:20:43.137Z,6.88
2022-11-05T14:23:50.892Z,6.80
2022-11-05T14:26:24.552Z,6.40
2022-11-05T14:29:24.058Z,7.18
2022-11-05T14:32:14.077Z,7.32
2022-11-05T14:34:49.510Z,7.28
2022-11-05T14:37:31.638Z,7.80
2022-11-05T14:40:30.293Z,6.38
2022-11-05T14:43:02.716Z,6.60
2022-11-05T14:45:32.671Z,6.85
2022-11-05T14:48:02.858Z,7.82
2022-11-05T14:50:38.786Z,7.38
2022-11-05T14:53:26.104Z,7.18
2022-11-05T14:56:02.390Z,7.60
2022-11-05T14:58:36.460Z,7.72
2022-11-05T15:01:07.530Z,7.68
2022-11-05T15:04:16.171Z,8.27
2022-11-05T15:07:33.523Z,7.95
2022-11-05T15:10:10.409Z,8.68
2022-11-05T15:12:44.893Z,7.97
2022-11-05T15:15:28.666Z,8.07
2022-11-05T15:18:04.916Z,8.05
2022-11-05T15:20:40.356Z,8.45
2022-11-05T15:23:15.075Z,7.90
2022-11-05T15:25:53.393Z,9.68
2022-11-05T15:28:31.691Z,9.23
2022-11-05T15:31:04.878Z,8.73
2022-11-05T15:33:34.206Z,8.95
2022-11-05T15:36:26.281Z,10.30
2022-11-05T15:39:22.887Z,11.30
2022-11-05T15:41:44.722Z,9.70
2022-11-05T15:44:26.913Z,9.43
2022-11-05T15:47:27.794Z,9.55
2022-11-05T15:52:34.693Z,9.80
2022-11-05T15:55:22.152Z,9.82
2022-11-05T15:58:00.416Z,9.43
2022-11-05T16:00:30.812Z,9.52
2022-11-05T16:03:05.742Z,10.50
2022-11-05T16:05:42.869Z,9.60
2022-11-05T16:08:18.508Z,9.77
2022-11-05T16:10:49.810Z,9.02
2022-11-05T16:13:40.120Z,9.40
2022-11-05T16:16:35.101Z,10.07
2022-11-05T16:19:40.323Z,10.18
2022-11-05T16:22:09.304Z,9.80
2022-11-05T16:24:37.656Z,9.90
2022-11-05T16:27:06.421Z,9.88
2022-11-05T16:29:37.703Z,10.13
2022-11-05T16:32:16.182Z,10.18
2022-11-05T16:34:50.521Z,10.32
2022-11-05T16:37:22.180Z,10.55
2022-11-05T16:39:50.672Z,9.93
2022-11-05T16:42:39.852Z,9.57
2022-11-05T16:45:12.597Z,10.15
2022-11-05T16:47:40.875Z,10.45
2022-11-05T16:50:21.540Z,9.75
2022-11-05T16:52:50.272Z,9.75
2022-11-05T16:55:19.721Z,10.10
2022-11-05T16:57:52.414Z,10.32
2022-11-05T17:00:22.732Z,10.18
2022-11-05T17:02:52.110Z,10.38
2022-11-05T17:05:25.718Z,10.98
2022-11-05T17:07:54.726Z,10.80
2022-11-05T17:10:25.194Z,10.63
2022-11-05T17:12:53.671Z,10.23
2022-11-05T17:15:25.902Z,9.98
2022-11-05T17:17:55.693Z,10.20
2022-11-05T17:20:40.284Z,10.67
2022-11-05T17:23:11.290Z,9.82
2022-11-05T17:25:40.597Z,9.55
2022-11-05T17:28:10.199Z,10.20
2022-11-05T17:30:41.424Z,10.17
2022-11-05T17:33:11.075Z,9.50
2022-11-05T17:35:42.223Z,9.75
2022-11-05T17:40:39.757Z,10.02
2022-11-05T17:43:08.923Z,9.18
2022-11-05T17:45:43.809Z,9.90
2022-11-05T17:48:12.499Z,9.57
2022-11-05T17:50:47.539Z,10.63
2022-11-05T17:53:18.452Z,9.65
2022-11-05T17:55:48.251Z,10.00
2022-11-05T17:58:16.888Z,9.17
2022-11-05T18:00:46.590Z,8.95
2022-11-05T18:03:16.006Z,8.90
2022-11-05T18:05:46.079Z,8.63
2022-11-05T18:08:14.282Z,8.90
2022-11-05T18:10:42.854Z,8.77
2022-11-05T18:13:12.192Z,9.90
2022-11-05T18:15:41.279Z,8.35
2022-11-05T18:18:10.275Z,9.10
2022-11-05T18:20:39.615Z,8.15
2022-11-05T18:23:09.380Z,8.63
2022-11-05T18:25:37.880Z,8.40
2022-11-05T18:28:06.562Z,8.85
2022-11-05T18:30:35.275Z,7.72
2022-11-05T18:33:03.467Z,8.25
2022-11-05T18:35:31.794Z,8.82
2022-11-05T18:38:00.245Z,8.85
2022-11-05T18:40:30.183Z,8.15
2022-11-05T18:42:58.446Z,7.95
2022-11-05T18:45:29.743Z,7.68
2022-11-05T18:47:58.422Z,8.85
2022-11-05T18:50:26.670Z,8.75
2022-11-05T18:52:55.060Z,8.88
2022-11-05T18:55:24.001Z,9.00
2022-11-05T18:57:53.698Z,7.97
2022-11-05T19:00:22.206Z,7.57
2022-11-05T19:02:50.669Z,8.13
2022-11-05T19:05:34.495Z,7.38
2022-11-05T19:08:02.799Z,7.80
2022-11-05T19:10:31.075Z,7.55
2022-11-05T19:13:00.687Z,7.13
2022-11-05T19:15:28.951Z,7.00
2022-11-05T19:17:57.166Z,7.60
2022-11-05T19:20:25.600Z,6.75
2022-11-05T19:22:53.855Z,8.45
2022-11-05T19:25:22.155Z,8.00
2022-11-05T19:27:50.444Z,7.63
2022-11-05T19:30:20.275Z,7.53
2022-11-05T19:32:48.569Z,8.00
2022-11-05T19:35:16.891Z,7.75
2022-11-05T19:37:45.432Z,8.80
2022-11-05T19:40:13.993Z,8.90
2022-11-05T19:42:42.330Z,8.20
2022-11-05T19:45:38.368Z,7.72
2022-11-05T19:48:01.415Z,7.75
2022-11-05T19:50:29.767Z,8.00
2022-11-05T19:52:58.148Z,7.95
2022-11-05T19:55:26.550Z,8.15
2022-11-05T19:57:55.011Z,7.45
2022-11-05T20:00:23.498Z,7.85
2022-11-05T20:02:51.917Z,8.40
2022-11-05T20:05:21.967Z,7.72
2022-11-05T20:07:53.130Z,7.90
2022-11-05T20:10:22.002Z,7.88
2022-11-05T20:12:50.762Z,7.55
2022-11-05T20:15:19.779Z,7.57
2022-11-05T20:17:52.822Z,7.80
2022-11-05T20:20:22.686Z,8.73
2022-11-05T20:22:53.567Z,7.93
2022-11-05T20:25:21.857Z,8.00
2022-11-05T20:27:50.225Z,8.00
2022-11-05T20:30:18.975Z,7.65
2022-11-05T20:32:47.304Z,8.18
2022-11-05T20:35:15.656Z,7.32
2022-11-05T20:37:48.540Z,7.22
2022-11-05T20:40:21.077Z,7.68
2022-11-05T20:42:49.328Z,7.60
2022-11-05T20:45:17.724Z,7.75
2022-11-05T20:47:45.973Z,7.93
2022-11-05T20:50:14.238Z,7.90
2022-11-05T20:52:43.881Z,8.52
2022-11-05T20:55:12.209Z,7.38
2022-11-05T20:57:40.573Z,8.07
2022-11-05T21:00:10.429Z,7.68
2022-11-05T21:02:41.225Z,7.00
2022-11-05T21:05:10.326Z,7.88
2022-11-05T21:07:38.546Z,7.80
2022-11-05T21:10:08.814Z,8.02
2022-11-05T21:12:37.053Z,7.97
2022-11-05T21:15:06.764Z,7.38
2022-11-05T21:17:35.006Z,7.90
2022-11-05T21:20:03.469Z,7.90
2022-11-05T21:22:31.962Z,7.05
2022-11-05T21:25:00.175Z,7.78
2022-11-05T21:27:29.753Z,7.18
2022-11-05T21:29:58.008Z,7.97
2022-11-05T21:32:26.211Z,7.90
2022-11-05T21:34:54.388Z,8.18
2022-11-05T21:37:22.730Z,8.25
2022-11-05T21:39:51.448Z,7.78
2022-11-05T21:42:19.789Z,8.30
2022-11-05T21:44:49.397Z,8.75
2022-11-05T21:47:17.669Z,7.60
2022-11-05T21:49:45.860Z,8.02
2022-11-05T21:52:31.813Z,7.43
2022-11-05T21:55:17.569Z,8.43
2022-11-05T21:58:03.209Z,7.82
2022-11-05T22:00:32.873Z,8.32
2022-11-05T22:03:01.128Z,7.75
2022-11-05T22:05:29.519Z,7.50
2022-11-05T22:07:57.746Z,8.88
2022-11-05T22:10:26.249Z,8.27
2022-11-05T22:12:54.466Z,7.38
2022-11-05T22:15:22.721Z,8.07
2022-11-05T22:17:52.750Z,8.10
2022-11-05T22:20:21.148Z,8.27
2022-11-05T22:22:49.470Z,7.85
2022-11-05T22:25:17.870Z,8.93
2022-11-05T22:27:46.193Z,7.85
2022-11-05T22:30:15.483Z,7.88
2022-11-05T22:32:43.765Z,7.95
2022-11-05T22:35:13.389Z,7.63
2022-11-05T22:37:41.685Z,8.13
2022-11-05T22:40:10.917Z,8.07
2022-11-05T22:42:39.230Z,8.13
2022-11-05T22:45:08.900Z,8.05
2022-11-05T22:47:37.384Z,7.53
2022-11-05T22:50:07.310Z,7.78
2022-11-05T22:52:36.967Z,8.60
2022-11-05T22:55:06.259Z,8.90
2022-11-05T22:57:34.606Z,8.52
2022-11-05T23:00:02.984Z,8.55
2022-11-05T23:02:31.426Z,9.10
2022-11-05T23:04:59.819Z,8.43
2022-11-05T23:07:45.454Z,9.27
2022-11-05T23:10:28.988Z,8.57
2022-11-05T23:12:57.208Z,8.65
2022-11-05T23:15:42.014Z,8.68
2022-11-05T23:18:28.338Z,9.02
2022-11-05T23:21:15.337Z,8.27
2022-11-05T23:24:03.539Z,8.52
2022-11-05T23:26:51.185Z,8.93
2022-11-05T23:29:21.371Z,8.73
2022-11-05T23:32:07.531Z,9.45
2022-11-05T23:34:36.301Z,9.50
2022-11-05T23:37:22.669Z,9.93
2022-11-05T23:39:51.265Z,9.30
2022-11-05T23:42:39.013Z,9.20
2022-11-05T23:45:25.989Z,8.90
2022-11-05T23:48:12.683Z,9.32
2022-11-05T23:50:41.683Z,8.27
2022-11-05T23:53:10.537Z,8.90
2022-11-05T23:55:39.514Z,9.45
2022-11-05T23:58:10.170Z,9.40
